sensor_id;sensor_type;location;lat;lon;timestamp;P1;durP1;ratioP1;P2;durP2;ratioP2
51527;SDS011;37612;51.768;21.590;2023-04-25T00:00:39;9.30;;;7.40;;
51527;SDS011;37612;51.768;21.590;2023-04-25T00:04:55;8.70;;;7.80;;
51527;SDS011;37612;51.768;21.590;2023-04-25T00:08:59;10.60;;;6.60;;
51527;SDS011;37612;51.768;21.590;2023-04-25T00:13:02;6.10;;;5.50;;
51527;SDS011;37612;51.768;21.590;2023-04-25T00:17:04;8.10;;;6.40;;
51527;SDS011;37612;51.768;21.590;2023-04-25T00:21:07;11.50;;;8.30;;
51527;SDS011;37612;51.768;21.590;2023-04-25T00:25:16;12.30;;;8.40;;
51527;SDS011;37612;51.768;21.590;2023-04-25T00:29:18;10.20;;;9.00;;
51527;SDS011;37612;51.768;21.590;2023-04-25T00:33:20;8.80;;;7.20;;
51527;SDS011;37612;51.768;21.590;2023-04-25T00:37:22;9.80;;;7.10;;
51527;SDS011;37612;51.768;21.590;2023-04-25T00:41:25;9.50;;;8.50;;
51527;SDS011;37612;51.768;21.590;2023-04-25T00:45:28;9.20;;;7.30;;
51527;SDS011;37612;51.768;21.590;2023-04-25T00:49:31;9.90;;;8.30;;
51527;SDS011;37612;51.768;21.590;2023-04-25T00:53:33;9.50;;;7.50;;
51527;SDS011;37612;51.768;21.590;2023-04-25T00:57:35;9.50;;;7.00;;
51527;SDS011;37612;51.768;21.590;2023-04-25T01:05:41;12.00;;;8.80;;
51527;SDS011;37612;51.768;21.590;2023-04-25T01:09:43;11.80;;;9.70;;
51527;SDS011;37612;51.768;21.590;2023-04-25T01:13:45;14.10;;;11.00;;
51527;SDS011;37612;51.768;21.590;2023-04-25T01:17:48;12.10;;;8.70;;
51527;SDS011;37612;51.768;21.590;2023-04-25T01:21:50;11.60;;;8.50;;
51527;SDS011;37612;51.768;21.590;2023-04-25T01:29:55;18.90;;;11.20;;
51527;SDS011;37612;51.768;21.590;2023-04-25T01:33:58;19.50;;;12.70;;
51527;SDS011;37612;51.768;21.590;2023-04-25T01:38:00;15.00;;;11.80;;
51527;SDS011;37612;51.768;21.590;2023-04-25T01:42:03;16.20;;;11.10;;
51527;SDS011;37612;51.768;21.590;2023-04-25T01:46:05;17.20;;;12.90;;
51527;SDS011;37612;51.768;21.590;2023-04-25T01:50:09;17.40;;;13.00;;
51527;SDS011;37612;51.768;21.590;2023-04-25T01:54:12;15.70;;;12.50;;
51527;SDS011;37612;51.768;21.590;2023-04-25T01:58:18;17.80;;;13.40;;
51527;SDS011;37612;51.768;21.590;2023-04-25T02:02:20;17.70;;;11.70;;
51527;SDS011;37612;51.768;21.590;2023-04-25T02:06:22;21.50;;;13.90;;
51527;SDS011;37612;51.768;21.590;2023-04-25T02:10:24;19.10;;;14.30;;
51527;SDS011;37612;51.768;21.590;2023-04-25T02:14:26;18.00;;;14.60;;
51527;SDS011;37612;51.768;21.590;2023-04-25T02:18:28;17.00;;;13.50;;
51527;SDS011;37612;51.768;21.590;2023-04-25T02:22:30;16.80;;;12.40;;
51527;SDS011;37612;51.768;21.590;2023-04-25T02:26:32;16.80;;;13.00;;
51527;SDS011;37612;51.768;21.590;2023-04-25T02:30:34;17.10;;;12.70;;
51527;SDS011;37612;51.768;21.590;2023-04-25T02:38:39;19.50;;;15.50;;
51527;SDS011;37612;51.768;21.590;2023-04-25T02:42:41;17.50;;;14.00;;
51527;SDS011;37612;51.768;21.590;2023-04-25T02:46:43;17.60;;;12.20;;
51527;SDS011;37612;51.768;21.590;2023-04-25T02:50:46;16.10;;;12.40;;
51527;SDS011;37612;51.768;21.590;2023-04-25T02:54:48;22.00;;;14.60;;
51527;SDS011;37612;51.768;21.590;2023-04-25T02:58:50;20.50;;;14.50;;
51527;SDS011;37612;51.768;21.590;2023-04-25T03:02:52;18.90;;;13.00;;
51527;SDS011;37612;51.768;21.590;2023-04-25T03:06:55;15.60;;;13.40;;
51527;SDS011;37612;51.768;21.590;2023-04-25T03:10:57;19.20;;;14.20;;
51527;SDS011;37612;51.768;21.590;2023-04-25T03:14:59;20.00;;;13.30;;
51527;SDS011;37612;51.768;21.590;2023-04-25T03:23:04;17.30;;;13.20;;
51527;SDS011;37612;51.768;21.590;2023-04-25T03:27:06;18.30;;;14.30;;
51527;SDS011;37612;51.768;21.590;2023-04-25T03:31:08;19.00;;;14.50;;
51527;SDS011;37612;51.768;21.590;2023-04-25T03:35:11;19.70;;;13.00;;
51527;SDS011;37612;51.768;21.590;2023-04-25T03:39:13;17.30;;;13.00;;
51527;SDS011;37612;51.768;21.590;2023-04-25T03:43:15;16.70;;;13.40;;
51527;SDS011;37612;51.768;21.590;2023-04-25T03:47:17;20.20;;;14.00;;
51527;SDS011;37612;51.768;21.590;2023-04-25T03:51:19;20.20;;;13.30;;
51527;SDS011;37612;51.768;21.590;2023-04-25T03:55:22;15.40;;;11.70;;
51527;SDS011;37612;51.768;21.590;2023-04-25T03:59:24;15.00;;;12.40;;
51527;SDS011;37612;51.768;21.590;2023-04-25T04:03:27;20.80;;;14.40;;
51527;SDS011;37612;51.768;21.590;2023-04-25T04:07:29;20.00;;;13.80;;
51527;SDS011;37612;51.768;21.590;2023-04-25T04:11:33;17.70;;;12.60;;
51527;SDS011;37612;51.768;21.590;2023-04-25T04:15:39;25.00;;;17.00;;
51527;SDS011;37612;51.768;21.590;2023-04-25T04:19:41;26.00;;;19.00;;
51527;SDS011;37612;51.768;21.590;2023-04-25T04:23:43;19.10;;;15.20;;
51527;SDS011;37612;51.768;21.590;2023-04-25T04:27:45;18.20;;;13.50;;
51527;SDS011;37612;51.768;21.590;2023-04-25T04:31:49;17.50;;;13.00;;
51527;SDS011;37612;51.768;21.590;2023-04-25T04:35:52;19.00;;;14.20;;
51527;SDS011;37612;51.768;21.590;2023-04-25T04:39:54;20.30;;;15.90;;
51527;SDS011;37612;51.768;21.590;2023-04-25T04:43:57;21.00;;;16.10;;
51527;SDS011;37612;51.768;21.590;2023-04-25T04:47:59;19.80;;;13.90;;
51527;SDS011;37612;51.768;21.590;2023-04-25T04:52:03;18.70;;;14.00;;
51527;SDS011;37612;51.768;21.590;2023-04-25T04:56:13;20.80;;;14.70;;
51527;SDS011;37612;51.768;21.590;2023-04-25T05:00:17;18.80;;;14.00;;
51527;SDS011;37612;51.768;21.590;2023-04-25T05:04:22;27.70;;;14.20;;
51527;SDS011;37612;51.768;21.590;2023-04-25T05:08:24;17.70;;;13.40;;
51527;SDS011;37612;51.768;21.590;2023-04-25T05:12:26;17.20;;;12.80;;
51527;SDS011;37612;51.768;21.590;2023-04-25T05:16:28;16.50;;;11.60;;
51527;SDS011;37612;51.768;21.590;2023-04-25T05:20:30;13.30;;;11.30;;
51527;SDS011;37612;51.768;21.590;2023-04-25T05:24:32;14.60;;;11.50;;
51527;SDS011;37612;51.768;21.590;2023-04-25T05:28:34;14.60;;;10.70;;
51527;SDS011;37612;51.768;21.590;2023-04-25T05:32:36;12.30;;;9.50;;
51527;SDS011;37612;51.768;21.590;2023-04-25T05:36:39;12.60;;;9.20;;
51527;SDS011;37612;51.768;21.590;2023-04-25T05:40:41;12.90;;;9.70;;
51527;SDS011;37612;51.768;21.590;2023-04-25T05:44:44;11.40;;;8.90;;
51527;SDS011;37612;51.768;21.590;2023-04-25T05:48:46;9.90;;;8.20;;
51527;SDS011;37612;51.768;21.590;2023-04-25T05:52:49;13.50;;;8.60;;
51527;SDS011;37612;51.768;21.590;2023-04-25T05:56:52;13.00;;;8.00;;
51527;SDS011;37612;51.768;21.590;2023-04-25T06:00:55;9.20;;;7.30;;
51527;SDS011;37612;51.768;21.590;2023-04-25T06:04:57;13.30;;;8.30;;
51527;SDS011;37612;51.768;21.590;2023-04-25T06:08:59;11.20;;;8.10;;
51527;SDS011;37612;51.768;21.590;2023-04-25T06:13:01;8.80;;;6.40;;
51527;SDS011;37612;51.768;21.590;2023-04-25T06:17:04;10.00;;;8.10;;
51527;SDS011;37612;51.768;21.590;2023-04-25T06:21:10;9.50;;;7.50;;
51527;SDS011;37612;51.768;21.590;2023-04-25T06:25:12;10.60;;;7.90;;
51527;SDS011;37612;51.768;21.590;2023-04-25T06:29:14;9.40;;;7.10;;
51527;SDS011;37612;51.768;21.590;2023-04-25T06:33:16;7.60;;;6.10;;
51527;SDS011;37612;51.768;21.590;2023-04-25T06:37:18;7.40;;;5.90;;
51527;SDS011;37612;51.768;21.590;2023-04-25T06:41:20;7.10;;;5.60;;
51527;SDS011;37612;51.768;21.590;2023-04-25T06:45:22;8.90;;;5.50;;
51527;SDS011;37612;51.768;21.590;2023-04-25T06:49:24;7.10;;;5.40;;
51527;SDS011;37612;51.768;21.590;2023-04-25T06:53:26;5.70;;;5.10;;
51527;SDS011;37612;51.768;21.590;2023-04-25T06:57:28;8.80;;;4.50;;
51527;SDS011;37612;51.768;21.590;2023-04-25T07:01:30;4.80;;;4.30;;
51527;SDS011;37612;51.768;21.590;2023-04-25T07:05:32;4.90;;;4.30;;
51527;SDS011;37612;51.768;21.590;2023-04-25T07:09:35;5.90;;;4.30;;
51527;SDS011;37612;51.768;21.590;2023-04-25T07:13:37;4.70;;;3.90;;
51527;SDS011;37612;51.768;21.590;2023-04-25T07:17:39;5.70;;;4.60;;
51527;SDS011;37612;51.768;21.590;2023-04-25T07:21:52;4.10;;;3.70;;
51527;SDS011;37612;51.768;21.590;2023-04-25T07:25:55;5.00;;;3.90;;
51527;SDS011;37612;51.768;21.590;2023-04-25T07:29:57;6.10;;;3.70;;
51527;SDS011;37612;51.768;21.590;2023-04-25T07:33:59;5.30;;;4.00;;
51527;SDS011;37612;51.768;21.590;2023-04-25T07:38:02;5.70;;;4.20;;
51527;SDS011;37612;51.768;21.590;2023-04-25T07:42:04;4.40;;;4.00;;
51527;SDS011;37612;51.768;21.590;2023-04-25T07:46:14;4.80;;;4.40;;
51527;SDS011;37612;51.768;21.590;2023-04-25T07:50:17;5.20;;;4.10;;
51527;SDS011;37612;51.768;21.590;2023-04-25T07:54:21;5.90;;;4.00;;
51527;SDS011;37612;51.768;21.590;2023-04-25T07:58:23;4.50;;;3.80;;
51527;SDS011;37612;51.768;21.590;2023-04-25T08:02:26;4.70;;;4.00;;
51527;SDS011;37612;51.768;21.590;2023-04-25T08:06:30;5.00;;;4.50;;
51527;SDS011;37612;51.768;21.590;2023-04-25T08:10:33;5.00;;;4.00;;
51527;SDS011;37612;51.768;21.590;2023-04-25T08:14:35;3.90;;;3.20;;
51527;SDS011;37612;51.768;21.590;2023-04-25T08:19:18;5.00;;;4.10;;
51527;SDS011;37612;51.768;21.590;2023-04-25T08:23:22;4.70;;;4.20;;
51527;SDS011;37612;51.768;21.590;2023-04-25T08:27:27;6.40;;;4.50;;
51527;SDS011;37612;51.768;21.590;2023-04-25T08:31:30;5.60;;;4.10;;
51527;SDS011;37612;51.768;21.590;2023-04-25T08:35:32;5.30;;;4.80;;
51527;SDS011;37612;51.768;21.590;2023-04-25T08:39:35;4.60;;;4.20;;
51527;SDS011;37612;51.768;21.590;2023-04-25T08:43:37;5.80;;;4.60;;
51527;SDS011;37612;51.768;21.590;2023-04-25T08:47:46;9.30;;;6.90;;
51527;SDS011;37612;51.768;21.590;2023-04-25T08:51:53;4.70;;;3.90;;
51527;SDS011;37612;51.768;21.590;2023-04-25T08:56:03;5.00;;;4.10;;
51527;SDS011;37612;51.768;21.590;2023-04-25T09:00:05;6.00;;;5.40;;
51527;SDS011;37612;51.768;21.590;2023-04-25T09:04:09;5.40;;;4.70;;
51527;SDS011;37612;51.768;21.590;2023-04-25T09:08:13;5.60;;;4.80;;
51527;SDS011;37612;51.768;21.590;2023-04-25T09:12:36;7.60;;;5.30;;
51527;SDS011;37612;51.768;21.590;2023-04-25T09:21:09;5.80;;;5.10;;
51527;SDS011;37612;51.768;21.590;2023-04-25T09:25:12;6.90;;;5.10;;
51527;SDS011;37612;51.768;21.590;2023-04-25T09:29:18;5.30;;;4.80;;
51527;SDS011;37612;51.768;21.590;2023-04-25T09:33:32;6.40;;;5.80;;
51527;SDS011;37612;51.768;21.590;2023-04-25T09:37:37;6.90;;;7.40;;
51527;SDS011;37612;51.768;21.590;2023-04-25T09:42:31;4.40;;;4.00;;
51527;SDS011;37612;51.768;21.590;2023-04-25T09:46:53;7.20;;;4.90;;
51527;SDS011;37612;51.768;21.590;2023-04-25T09:51:08;5.30;;;4.80;;
51527;SDS011;37612;51.768;21.590;2023-04-25T09:55:11;6.30;;;4.60;;
51527;SDS011;37612;51.768;21.590;2023-04-25T09:59:14;4.60;;;4.10;;
51527;SDS011;37612;51.768;21.590;2023-04-25T10:03:17;5.10;;;4.60;;
51527;SDS011;37612;51.768;21.590;2023-04-25T10:08:03;5.40;;;4.20;;
51527;SDS011;37612;51.768;21.590;2023-04-25T10:12:13;5.40;;;4.70;;
51527;SDS011;37612;51.768;21.590;2023-04-25T10:20:18;4.20;;;3.80;;
51527;SDS011;37612;51.768;21.590;2023-04-25T10:24:20;5.40;;;4.20;;
51527;SDS011;37612;51.768;21.590;2023-04-25T10:32:25;5.00;;;4.30;;
51527;SDS011;37612;51.768;21.590;2023-04-25T10:40:40;4.20;;;3.80;;
51527;SDS011;37612;51.768;21.590;2023-04-25T10:44:47;5.60;;;3.80;;
51527;SDS011;37612;51.768;21.590;2023-04-25T10:49:06;5.70;;;4.50;;
51527;SDS011;37612;51.768;21.590;2023-04-25T10:53:14;4.40;;;4.00;;
51527;SDS011;37612;51.768;21.590;2023-04-25T11:01:52;5.00;;;4.30;;
51527;SDS011;37612;51.768;21.590;2023-04-25T11:05:57;4.40;;;4.00;;
51527;SDS011;37612;51.768;21.590;2023-04-25T11:10:03;6.00;;;4.90;;
51527;SDS011;37612;51.768;21.590;2023-04-25T11:14:06;6.70;;;4.80;;
51527;SDS011;37612;51.768;21.590;2023-04-25T11:18:08;6.40;;;4.60;;
51527;SDS011;37612;51.768;21.590;2023-04-25T11:22:10;6.00;;;5.40;;
51527;SDS011;37612;51.768;21.590;2023-04-25T11:26:13;6.80;;;5.90;;
51527;SDS011;37612;51.768;21.590;2023-04-25T11:30:16;6.20;;;5.50;;
51527;SDS011;37612;51.768;21.590;2023-04-25T11:34:19;7.50;;;5.80;;
51527;SDS011;37612;51.768;21.590;2023-04-25T11:38:25;7.80;;;7.00;;
51527;SDS011;37612;51.768;21.590;2023-04-25T11:42:33;9.70;;;7.00;;
51527;SDS011;37612;51.768;21.590;2023-04-25T11:46:35;6.40;;;5.70;;
51527;SDS011;37612;51.768;21.590;2023-04-25T11:50:38;9.50;;;8.60;;
51527;SDS011;37612;51.768;21.590;2023-04-25T11:54:41;8.00;;;7.20;;
51527;SDS011;37612;51.768;21.590;2023-04-25T11:58:59;8.40;;;7.30;;
51527;SDS011;37612;51.768;21.590;2023-04-25T12:03:08;12.00;;;8.00;;
51527;SDS011;37612;51.768;21.590;2023-04-25T12:07:11;8.70;;;7.80;;
51527;SDS011;37612;51.768;21.590;2023-04-25T12:11:21;12.20;;;7.60;;
51527;SDS011;37612;51.768;21.590;2023-04-25T12:15:24;9.30;;;8.30;;
51527;SDS011;37612;51.768;21.590;2023-04-25T12:19:33;12.10;;;8.00;;
51527;SDS011;37612;51.768;21.590;2023-04-25T12:23:38;10.80;;;8.30;;
51527;SDS011;37612;51.768;21.590;2023-04-25T12:27:41;9.50;;;7.80;;
51527;SDS011;37612;51.768;21.590;2023-04-25T12:31:43;8.40;;;6.90;;
51527;SDS011;37612;51.768;21.590;2023-04-25T12:35:46;8.90;;;8.00;;
51527;SDS011;37612;51.768;21.590;2023-04-25T12:39:49;8.80;;;7.90;;
51527;SDS011;37612;51.768;21.590;2023-04-25T12:43:51;8.80;;;7.60;;
51527;SDS011;37612;51.768;21.590;2023-04-25T12:47:53;9.20;;;7.30;;
51527;SDS011;37612;51.768;21.590;2023-04-25T12:51:56;15.10;;;8.20;;
51527;SDS011;37612;51.768;21.590;2023-04-25T12:55:58;10.20;;;7.50;;
51527;SDS011;37612;51.768;21.590;2023-04-25T13:00:00;10.00;;;8.60;;
51527;SDS011;37612;51.768;21.590;2023-04-25T13:04:03;7.90;;;7.10;;
51527;SDS011;37612;51.768;21.590;2023-04-25T13:08:05;8.30;;;7.50;;
51527;SDS011;37612;51.768;21.590;2023-04-25T13:12:07;8.90;;;7.00;;
51527;SDS011;37612;51.768;21.590;2023-04-25T13:16:09;7.10;;;6.40;;
51527;SDS011;37612;51.768;21.590;2023-04-25T13:20:11;9.30;;;7.30;;
51527;SDS011;37612;51.768;21.590;2023-04-25T13:24:15;8.90;;;6.80;;
51527;SDS011;37612;51.768;21.590;2023-04-25T13:28:17;7.10;;;6.00;;
51527;SDS011;37612;51.768;21.590;2023-04-25T13:32:19;5.60;;;4.90;;
51527;SDS011;37612;51.768;21.590;2023-04-25T13:36:21;7.30;;;5.80;;
51527;SDS011;37612;51.768;21.590;2023-04-25T13:40:23;19.00;;;11.60;;
51527;SDS011;37612;51.768;21.590;2023-04-25T13:44:26;13.80;;;12.40;;
51527;SDS011;37612;51.768;21.590;2023-04-25T13:48:28;6.90;;;4.90;;
51527;SDS011;37612;51.768;21.590;2023-04-25T13:52:30;19.00;;;14.30;;
51527;SDS011;37612;51.768;21.590;2023-04-25T13:56:32;5.50;;;4.80;;
51527;SDS011;37612;51.768;21.590;2023-04-25T14:00:37;5.90;;;5.20;;
51527;SDS011;37612;51.768;21.590;2023-04-25T14:04:41;6.40;;;5.60;;
51527;SDS011;37612;51.768;21.590;2023-04-25T14:08:44;9.20;;;7.40;;
51527;SDS011;37612;51.768;21.590;2023-04-25T14:12:46;7.00;;;4.40;;
51527;SDS011;37612;51.768;21.590;2023-04-25T14:16:48;6.30;;;5.80;;
51527;SDS011;37612;51.768;21.590;2023-04-25T14:20:51;6.90;;;4.70;;
51527;SDS011;37612;51.768;21.590;2023-04-25T14:24:53;6.60;;;4.30;;
51527;SDS011;37612;51.768;21.590;2023-04-25T14:28:56;6.20;;;4.80;;
51527;SDS011;37612;51.768;21.590;2023-04-25T14:32:58;7.80;;;5.20;;
51527;SDS011;37612;51.768;21.590;2023-04-25T14:37:00;7.20;;;5.00;;
51527;SDS011;37612;51.768;21.590;2023-04-25T14:41:02;4.70;;;4.20;;
51527;SDS011;37612;51.768;21.590;2023-04-25T14:45:07;5.50;;;4.90;;
51527;SDS011;37612;51.768;21.590;2023-04-25T14:49:18;6.90;;;4.90;;
51527;SDS011;37612;51.768;21.590;2023-04-25T14:57:22;25.00;;;16.30;;
51527;SDS011;37612;51.768;21.590;2023-04-25T15:01:24;7.60;;;6.40;;
51527;SDS011;37612;51.768;21.590;2023-04-25T15:05:26;11.80;;;8.50;;
51527;SDS011;37612;51.768;21.590;2023-04-25T15:09:28;10.20;;;8.20;;
51527;SDS011;37612;51.768;21.590;2023-04-25T15:13:30;21.70;;;12.20;;
51527;SDS011;37612;51.768;21.590;2023-04-25T15:17:33;12.40;;;9.90;;
51527;SDS011;37612;51.768;21.590;2023-04-25T15:21:35;13.60;;;11.20;;
51527;SDS011;37612;51.768;21.590;2023-04-25T15:25:37;10.80;;;7.40;;
51527;SDS011;37612;51.768;21.590;2023-04-25T15:29:39;10.50;;;8.60;;
51527;SDS011;37612;51.768;21.590;2023-04-25T15:33:42;8.90;;;7.40;;
51527;SDS011;37612;51.768;21.590;2023-04-25T15:37:44;8.40;;;7.40;;
51527;SDS011;37612;51.768;21.590;2023-04-25T15:45:49;11.70;;;8.40;;
51527;SDS011;37612;51.768;21.590;2023-04-25T15:49:52;8.50;;;6.50;;
51527;SDS011;37612;51.768;21.590;2023-04-25T15:53:58;11.80;;;8.40;;
51527;SDS011;37612;51.768;21.590;2023-04-25T15:58:00;21.50;;;15.40;;
51527;SDS011;37612;51.768;21.590;2023-04-25T16:02:03;10.60;;;7.90;;
51527;SDS011;37612;51.768;21.590;2023-04-25T16:06:09;14.10;;;10.20;;
51527;SDS011;37612;51.768;21.590;2023-04-25T16:10:31;13.60;;;9.80;;
51527;SDS011;37612;51.768;21.590;2023-04-25T16:14:33;11.60;;;9.10;;
51527;SDS011;37612;51.768;21.590;2023-04-25T16:22:38;11.20;;;9.40;;
51527;SDS011;37612;51.768;21.590;2023-04-25T16:26:41;12.40;;;9.80;;
51527;SDS011;37612;51.768;21.590;2023-04-25T16:30:44;12.10;;;10.70;;
51527;SDS011;37612;51.768;21.590;2023-04-25T16:34:55;20.30;;;16.70;;
51527;SDS011;37612;51.768;21.590;2023-04-25T16:39:23;14.30;;;11.10;;
51527;SDS011;37612;51.768;21.590;2023-04-25T16:43:46;14.30;;;12.30;;
51527;SDS011;37612;51.768;21.590;2023-04-25T16:48:20;12.00;;;10.20;;
51527;SDS011;37612;51.768;21.590;2023-04-25T16:52:40;15.70;;;10.10;;
51527;SDS011;37612;51.768;21.590;2023-04-25T16:56:48;12.80;;;11.00;;
51527;SDS011;37612;51.768;21.590;2023-04-25T17:01:09;13.20;;;10.60;;
51527;SDS011;37612;51.768;21.590;2023-04-25T17:05:30;12.90;;;8.70;;
51527;SDS011;37612;51.768;21.590;2023-04-25T17:09:43;12.00;;;8.70;;
51527;SDS011;37612;51.768;21.590;2023-04-25T17:14:05;11.20;;;7.80;;
51527;SDS011;37612;51.768;21.590;2023-04-25T17:18:26;9.90;;;8.10;;
51527;SDS011;37612;51.768;21.590;2023-04-25T17:22:34;10.30;;;7.70;;
51527;SDS011;37612;51.768;21.590;2023-04-25T17:26:58;12.10;;;7.90;;
51527;SDS011;37612;51.768;21.590;2023-04-25T17:31:22;10.30;;;7.50;;
51527;SDS011;37612;51.768;21.590;2023-04-25T17:35:30;10.30;;;8.00;;
51527;SDS011;37612;51.768;21.590;2023-04-25T17:39:53;10.90;;;8.40;;
51527;SDS011;37612;51.768;21.590;2023-04-25T17:44:16;11.10;;;7.60;;
51527;SDS011;37612;51.768;21.590;2023-04-25T17:48:25;12.20;;;8.50;;
51527;SDS011;37612;51.768;21.590;2023-04-25T17:52:49;10.60;;;8.20;;
51527;SDS011;37612;51.768;21.590;2023-04-25T17:57:10;13.10;;;8.40;;
51527;SDS011;37612;51.768;21.590;2023-04-25T18:01:18;13.90;;;9.50;;
51527;SDS011;37612;51.768;21.590;2023-04-25T18:05:43;12.40;;;7.80;;
51527;SDS011;37612;51.768;21.590;2023-04-25T18:09:58;11.20;;;7.50;;
51527;SDS011;37612;51.768;21.590;2023-04-25T18:14:21;10.40;;;8.20;;
51527;SDS011;37612;51.768;21.590;2023-04-25T18:18:48;8.90;;;6.30;;
51527;SDS011;37612;51.768;21.590;2023-04-25T18:23:10;9.20;;;7.20;;
51527;SDS011;37612;51.768;21.590;2023-04-25T18:27:34;10.20;;;7.30;;
51527;SDS011;37612;51.768;21.590;2023-04-25T18:31:59;8.80;;;6.80;;
51527;SDS011;37612;51.768;21.590;2023-04-25T18:36:20;10.40;;;7.60;;
51527;SDS011;37612;51.768;21.590;2023-04-25T18:40:29;11.30;;;7.40;;
51527;SDS011;37612;51.768;21.590;2023-04-25T18:44:53;10.10;;;6.90;;
51527;SDS011;37612;51.768;21.590;2023-04-25T18:49:17;11.20;;;7.60;;
51527;SDS011;37612;51.768;21.590;2023-04-25T18:53:42;9.00;;;6.20;;
51527;SDS011;37612;51.768;21.590;2023-04-25T18:58:09;10.10;;;7.00;;
51527;SDS011;37612;51.768;21.590;2023-04-25T19:02:20;10.00;;;6.20;;
51527;SDS011;37612;51.768;21.590;2023-04-25T19:06:57;23.30;;;7.90;;
51527;SDS011;37612;51.768;21.590;2023-04-25T19:11:17;9.40;;;6.30;;
51527;SDS011;37612;51.768;21.590;2023-04-25T19:15:41;13.00;;;7.10;;
51527;SDS011;37612;51.768;21.590;2023-04-25T19:20:25;8.90;;;6.50;;
51527;SDS011;37612;51.768;21.590;2023-04-25T19:24:36;11.70;;;5.70;;
51527;SDS011;37612;51.768;21.590;2023-04-25T19:29:06;8.90;;;6.60;;
51527;SDS011;37612;51.768;21.590;2023-04-25T19:33:28;10.80;;;6.60;;
51527;SDS011;37612;51.768;21.590;2023-04-25T19:37:53;9.40;;;6.00;;
51527;SDS011;37612;51.768;21.590;2023-04-25T19:42:16;8.80;;;5.90;;
51527;SDS011;37612;51.768;21.590;2023-04-25T19:46:42;14.00;;;6.10;;
51527;SDS011;37612;51.768;21.590;2023-04-25T19:51:02;9.70;;;6.80;;
51527;SDS011;37612;51.768;21.590;2023-04-25T19:55:29;10.80;;;6.90;;
51527;SDS011;37612;51.768;21.590;2023-04-25T19:59:56;8.00;;;6.10;;
51527;SDS011;37612;51.768;21.590;2023-04-25T20:04:21;15.70;;;9.80;;
51527;SDS011;37612;51.768;21.590;2023-04-25T20:08:48;9.20;;;7.50;;
51527;SDS011;37612;51.768;21.590;2023-04-25T20:13:12;8.30;;;6.00;;
51527;SDS011;37612;51.768;21.590;2023-04-25T20:17:39;15.60;;;10.20;;
51527;SDS011;37612;51.768;21.590;2023-04-25T20:22:02;12.50;;;7.80;;
51527;SDS011;37612;51.768;21.590;2023-04-25T20:26:25;13.50;;;8.80;;
51527;SDS011;37612;51.768;21.590;2023-04-25T20:31:01;11.60;;;7.40;;
51527;SDS011;37612;51.768;21.590;2023-04-25T20:35:23;11.50;;;7.80;;
51527;SDS011;37612;51.768;21.590;2023-04-25T20:39:32;15.30;;;8.90;;
51527;SDS011;37612;51.768;21.590;2023-04-25T20:43:54;14.40;;;8.90;;
51527;SDS011;37612;51.768;21.590;2023-04-25T20:48:15;22.70;;;11.80;;
51527;SDS011;37612;51.768;21.590;2023-04-25T20:52:32;12.00;;;8.70;;
51527;SDS011;37612;51.768;21.590;2023-04-25T20:57:08;12.20;;;6.70;;
51527;SDS011;37612;51.768;21.590;2023-04-25T21:01:46;12.80;;;7.70;;
51527;SDS011;37612;51.768;21.590;2023-04-25T21:05:58;11.70;;;7.20;;
51527;SDS011;37612;51.768;21.590;2023-04-25T21:10:09;14.70;;;7.80;;
51527;SDS011;37612;51.768;21.590;2023-04-25T21:14:36;10.00;;;7.30;;
51527;SDS011;37612;51.768;21.590;2023-04-25T21:19:24;12.90;;;6.60;;
51527;SDS011;37612;51.768;21.590;2023-04-25T21:23:32;10.20;;;6.50;;
51527;SDS011;37612;51.768;21.590;2023-04-25T21:28:10;11.30;;;7.60;;
51527;SDS011;37612;51.768;21.590;2023-04-25T21:32:22;9.60;;;6.70;;
51527;SDS011;37612;51.768;21.590;2023-04-25T21:36:57;11.00;;;7.40;;
51527;SDS011;37612;51.768;21.590;2023-04-25T21:41:06;10.60;;;6.70;;
51527;SDS011;37612;51.768;21.590;2023-04-25T21:45:49;15.60;;;9.50;;
51527;SDS011;37612;51.768;21.590;2023-04-25T21:49:58;12.80;;;10.00;;
51527;SDS011;37612;51.768;21.590;2023-04-25T21:54:47;18.00;;;12.50;;
51527;SDS011;37612;51.768;21.590;2023-04-25T21:58:56;14.70;;;9.30;;
51527;SDS011;37612;51.768;21.590;2023-04-25T22:03:32;9.90;;;7.50;;
51527;SDS011;37612;51.768;21.590;2023-04-25T22:07:41;11.00;;;8.20;;
51527;SDS011;37612;51.768;21.590;2023-04-25T22:12:19;10.70;;;9.10;;
51527;SDS011;37612;51.768;21.590;2023-04-25T22:16:28;9.40;;;7.80;;
51527;SDS011;37612;51.768;21.590;2023-04-25T22:21:15;12.30;;;8.50;;
51527;SDS011;37612;51.768;21.590;2023-04-25T22:25:23;12.70;;;10.30;;
51527;SDS011;37612;51.768;21.590;2023-04-25T22:29:57;11.50;;;8.40;;
51527;SDS011;37612;51.768;21.590;2023-04-25T22:34:47;16.20;;;10.80;;
51527;SDS011;37612;51.768;21.590;2023-04-25T22:38:56;11.10;;;7.80;;
51527;SDS011;37612;51.768;21.590;2023-04-25T22:43:22;10.60;;;8.40;;
51527;SDS011;37612;51.768;21.590;2023-04-25T22:47:37;11.50;;;8.40;;
51527;SDS011;37612;51.768;21.590;2023-04-25T22:52:01;11.90;;;9.40;;
51527;SDS011;37612;51.768;21.590;2023-04-25T22:56:18;13.10;;;9.20;;
51527;SDS011;37612;51.768;21.590;2023-04-25T23:01:01;10.50;;;8.60;;
51527;SDS011;37612;51.768;21.590;2023-04-25T23:05:06;13.40;;;10.30;;
51527;SDS011;37612;51.768;21.590;2023-04-25T23:09:49;12.30;;;9.30;;
51527;SDS011;37612;51.768;21.590;2023-04-25T23:14:05;12.00;;;8.80;;
51527;SDS011;37612;51.768;21.590;2023-04-25T23:18:44;14.00;;;10.30;;
51527;SDS011;37612;51.768;21.590;2023-04-25T23:22:53;13.50;;;9.90;;
51527;SDS011;37612;51.768;21.590;2023-04-25T23:27:42;13.50;;;9.60;;
51527;SDS011;37612;51.768;21.590;2023-04-25T23:32:08;11.60;;;9.30;;
51527;SDS011;37612;51.768;21.590;2023-04-25T23:36:40;12.80;;;10.10;;
51527;SDS011;37612;51.768;21.590;2023-04-25T23:41:25;13.20;;;9.00;;
51527;SDS011;37612;51.768;21.590;2023-04-25T23:45:54;13.40;;;9.90;;
51527;SDS011;37612;51.768;21.590;2023-04-25T23:50:31;14.40;;;10.00;;
51527;SDS011;37612;51.768;21.590;2023-04-25T23:55:54;12.30;;;8.80;;
